Time;durP1;ratioP1;P1;durP2;ratioP2;P2;SDS_P1;SDS_P2;PMS_P1;PMS_P2;Temp;Humidity;BMP_temperature;BMP_pressure;BME280_temperature;BME280_humidity;BME280_pressure;Samples;Min_cycle;Max_cycle;Signal;HPM_P1;HPM_P2
2022/12/31 00:01:10;;;;;;;1.47;0.90;;;10.30;99.90;;;-141.84;76.59;19257.00;5064716;28;20208;-61
2022/12/31 00:03:39;;;;;;;0.60;0.40;;;10.30;99.90;;;-141.84;76.29;19187.91;5065705;28;20200;-60
2022/12/31 00:06:17;;;;;;;2.03;1.40;;;10.30;99.90;;;-141.84;75.41;19240.75;5068100;28;20220;-61
2022/12/31 00:08:47;;;;;;;1.27;0.73;;;10.40;99.90;;;-141.84;75.96;19228.56;5065436;28;20687;-59
2022/12/31 00:11:16;;;;;;;0.50;0.50;;;10.40;99.90;;;-141.84;76.17;19192.00;5068457;28;20711;-61
2022/12/31 00:13:45;;;;;;;1.63;1.30;;;10.40;99.90;;;-141.84;76.09;19246.84;5066186;28;20232;-60
2022/12/31 00:16:18;;;;;;;0.60;0.50;;;10.40;99.90;;;-141.84;75.98;19252.94;5068132;28;20231;-61
2022/12/31 00:18:49;;;;;;;1.03;0.40;;;10.40;99.90;;;-141.84;75.77;19226.53;5066670;28;20215;-62
2022/12/31 00:21:19;;;;;;;1.17;0.60;;;10.50;99.90;;;-141.84;76.24;19220.44;5069389;28;20754;-61
2022/12/31 00:23:48;;;;;;;0.70;0.60;;;10.40;99.90;;;-141.84;76.68;19226.53;5066605;28;20227;-62
2022/12/31 00:26:20;;;;;;;0.70;0.50;;;10.40;99.90;;;-141.84;76.87;19200.13;5072679;28;20217;-60
2022/12/31 00:28:49;;;;;;;0.70;0.60;;;10.30;99.90;;;-141.84;76.45;19214.34;5072471;28;20335;-60
2022/12/31 00:31:21;;;;;;;0.67;0.67;;;10.40;99.90;;;-141.84;76.43;19228.56;5072643;28;20224;-60
2022/12/31 00:33:51;;;;;;;1.33;0.60;;;10.40;99.90;;;-141.84;76.33;19214.34;5072464;28;20645;-60
2022/12/31 00:36:22;;;;;;;2.40;0.80;;;10.40;99.90;;;-141.84;76.64;19187.91;5073805;28;20204;-60
2022/12/31 00:38:53;;;;;;;0.80;0.73;;;10.40;99.90;;;-141.84;76.99;19210.28;5073188;28;20225;-60
2022/12/31 00:41:22;;;;;;;0.67;0.60;;;10.40;99.90;;;-141.84;76.33;19234.66;5073674;28;20308;-60
2022/12/31 00:43:51;;;;;;;0.80;0.50;;;10.40;99.90;;;-141.84;76.14;19261.06;5073199;28;20743;-58
2022/12/31 00:46:21;;;;;;;2.90;0.77;;;10.50;99.90;;;-141.84;76.07;19218.41;5073504;28;20231;-58
2022/12/31 00:48:49;;;;;;;1.17;0.70;;;10.50;99.90;;;-141.84;76.49;19187.91;5073560;28;20648;-59
2022/12/31 00:51:21;;;;;;;0.87;0.60;;;10.50;99.90;;;-141.84;76.88;19220.44;5073676;28;20847;-60
2022/12/31 00:53:50;;;;;;;1.20;0.80;;;10.50;99.90;;;-141.84;77.00;19220.44;5073110;28;20271;-58
2022/12/31 00:56:22;;;;;;;1.27;0.60;;;10.40;99.90;;;-141.84;77.59;19167.59;5073319;28;20224;-60
2022/12/31 00:58:51;;;;;;;0.90;0.70;;;10.40;99.90;;;-141.84;77.71;19198.09;5073463;28;20225;-60
2022/12/31 01:01:23;;;;;;;0.90;0.60;;;10.40;99.90;;;-141.84;77.92;19165.56;5073393;28;20228;-59
2022/12/31 01:03:55;;;;;;;1.03;0.80;;;10.30;99.90;;;-141.84;78.10;19192.00;5073524;28;20214;-59
2022/12/31 01:06:24;;;;;;;0.70;0.60;;;10.30;99.90;;;-141.84;78.05;19192.00;5073410;28;20212;-60
2022/12/31 01:08:54;;;;;;;0.50;0.50;;;10.30;99.90;;;-141.84;77.31;19194.03;5072678;28;20228;-60
2022/12/31 01:11:27;;;;;;;0.97;0.87;;;10.40;99.90;;;-141.84;78.44;19137.13;5073302;28;20256;-59
2022/12/31 01:13:59;;;;;;;0.57;0.57;;;10.20;99.90;;;-141.84;79.78;19161.50;5073022;28;20281;-59
2022/12/31 01:16:33;;;;;;;0.70;0.70;;;10.10;99.90;;;-141.84;80.42;19131.03;5073058;28;20221;-61
2022/12/31 01:19:05;;;;;;;0.60;0.60;;;10.00;99.90;;;-141.84;80.99;19118.84;5073127;28;20208;-59
2022/12/31 01:21:35;;;;;;;0.67;0.60;;;10.00;99.90;;;-141.84;80.78;19129.00;5072684;28;20196;-58
2022/12/31 01:24:04;;;;;;;1.00;1.00;;;10.00;99.90;;;-141.84;80.41;19135.09;5072115;28;20221;-59
2022/12/31 01:26:32;;;;;;;4.73;4.33;;;10.10;99.90;;;-141.84;79.78;19153.38;5072487;28;20255;-60
2022/12/31 01:29:00;;;;;;;0.80;0.70;;;10.10;99.90;;;-141.84;79.31;19163.53;5072373;28;20952;-60
2022/12/31 01:31:30;;;;;;;6.20;5.33;;;10.20;99.90;;;-141.84;79.00;19183.84;5072492;28;20217;-59
2022/12/31 01:33:58;;;;;;;1.50;0.80;;;10.30;99.90;;;-141.84;79.26;19183.84;5072793;28;20204;-59
2022/12/31 01:36:29;;;;;;;0.90;0.70;;;10.30;99.90;;;-141.84;78.61;19220.44;5072946;28;20197;-60
2022/12/31 01:39:01;;;;;;;1.00;0.70;;;10.40;99.90;;;-141.84;78.64;19155.41;5072373;28;20216;-60
2022/12/31 01:41:33;;;;;;;0.80;0.70;;;10.40;99.90;;;-141.84;78.40;19175.72;5072327;28;20687;-60
2022/12/31 01:44:23;;;;;;;1.93;0.60;;;10.50;99.90;;;-141.84;78.03;19183.84;5072528;28;20232;-59
2022/12/31 01:46:57;;;;;;;1.67;0.93;;;10.50;99.90;;;-141.84;77.88;19216.38;5072253;28;20730;-59
2022/12/31 01:49:35;;;;;;;1.13;0.40;;;10.60;99.90;;;-141.84;78.28;19173.69;5072692;28;20313;-60
2022/12/31 01:52:11;;;;;;;0.60;0.60;;;10.60;99.90;;;-141.84;77.99;19187.91;5071883;28;20216;-60
2022/12/31 01:54:46;;;;;;;0.73;0.50;;;10.70;99.90;;;-141.84;78.71;19206.22;5072494;28;20185;-60
2022/12/31 01:57:16;;;;;;;0.90;0.67;;;10.70;99.90;;;-141.84;78.03;19200.13;5072123;28;20290;-60
2022/12/31 01:59:46;;;;;;;0.50;0.50;;;10.70;99.90;;;-141.84;78.07;19204.19;5072068;28;20225;-60
2022/12/31 02:02:16;;;;;;;0.70;0.53;;;10.80;99.90;;;-141.84;77.48;19179.78;5072064;28;20236;-59
2022/12/31 02:04:44;;;;;;;0.50;0.50;;;10.90;99.90;;;-141.84;77.08;19228.56;5072187;28;20224;-60
2022/12/31 02:07:13;;;;;;;1.57;0.53;;;10.90;99.90;;;-141.84;78.04;19200.13;5071688;28;20233;-58
2022/12/31 02:09:42;;;;;;;0.40;0.40;;;10.80;99.90;;;-141.84;78.14;19185.88;5072324;28;20201;-60
2022/12/31 02:12:11;;;;;;;0.93;0.50;;;10.80;99.90;;;-141.84;78.20;19212.31;5071591;28;20754;-59
2022/12/31 02:14:43;;;;;;;0.60;0.60;;;10.80;99.90;;;-141.84;78.25;19192.00;5071724;28;20228;-60
2022/12/31 02:17:32;;;;;;;0.67;0.60;;;10.80;99.90;;;-141.84;79.17;19206.22;5071791;28;20221;-59
2022/12/31 02:21:00;;;;;;;0.53;0.53;;;10.70;99.90;;;-141.84;79.20;19171.66;5071769;28;20225;-59
2022/12/31 02:24:09;;;;;;;0.53;0.53;;;10.70;99.90;;;-141.84;78.75;19185.88;5071726;28;20311;-59
2022/12/31 02:26:55;;;;;;;0.60;0.60;;;10.70;99.90;;;-141.84;78.95;19218.41;5070198;28;20583;-58
2022/12/31 02:30:07;;;;;;;0.70;0.50;;;10.80;99.90;;;-141.84;79.12;19222.47;5071369;28;20259;-60
2022/12/31 02:32:58;;;;;;;0.60;0.60;;;10.80;99.90;;;-141.84;79.02;19187.91;5071520;28;20225;-60
2022/12/31 02:35:37;;;;;;;0.50;0.50;;;10.80;99.90;;;-141.84;79.40;19183.84;5066080;28;20757;-60
2022/12/31 02:38:13;;;;;;;1.83;0.40;;;10.80;99.90;;;-141.84;78.96;19196.06;5051259;28;20602;-60
2022/12/31 02:40:41;;;;;;;0.67;0.50;;;10.80;99.90;;;-141.84;78.40;19220.44;5051279;28;20269;-59
2022/12/31 02:43:09;;;;;;;0.50;0.50;;;10.90;99.90;;;-141.84;78.22;19220.44;5077041;28;20235;-58
2022/12/31 02:45:42;;;;;;;0.40;0.40;;;11.00;99.90;;;-141.84;78.30;19206.22;5083376;28;20566;-59
2022/12/31 02:48:45;;;;;;;0.53;0.40;;;11.00;99.90;;;-141.84;78.28;19216.38;5058065;28;20238;-60
2022/12/31 02:51:32;;;;;;;0.90;0.53;;;11.10;99.90;;;-141.84;79.48;19232.63;5070089;28;20224;-60
2022/12/31 02:54:20;;;;;;;0.70;0.70;;;11.10;99.90;;;-141.84;79.33;19202.16;5050645;28;20236;-59
2022/12/31 02:57:04;;;;;;;0.50;0.50;;;11.10;99.90;;;-141.84;78.99;19200.13;5050729;28;20221;-59
2022/12/31 03:02:33;;;;;;;0.40;0.40;;;11.20;99.90;;;-141.84;78.87;19167.59;5055390;28;20223;-60
2022/12/31 03:05:03;;;;;;;0.50;0.50;;;11.20;99.90;;;-141.84;78.54;19254.97;5062144;28;20228;-60
2022/12/31 03:07:33;;;;;;;1.83;0.50;;;11.20;99.90;;;-141.84;78.50;19248.88;5050606;28;20665;-59
2022/12/31 03:10:01;;;;;;;0.50;0.50;;;11.30;99.90;;;-141.84;78.27;19208.25;5050626;28;20661;-60
2022/12/31 03:12:47;;;;;;;0.87;0.60;;;11.30;99.90;;;-141.84;78.59;19224.50;5051198;28;20202;-60
2022/12/31 03:15:20;;;;;;;0.50;0.50;;;11.30;99.90;;;-141.84;78.91;19222.47;5051037;28;20205;-60
2022/12/31 03:17:57;;;;;;;1.43;0.53;;;11.30;99.90;;;-141.84;77.95;19232.63;5050900;28;20638;-59
2022/12/31 03:23:25;;;;;;;0.50;0.50;;;11.30;99.90;;;-141.84;78.85;19226.53;5031109;28;20238;-59
2022/12/31 03:25:53;;;;;;;0.40;0.40;;;11.30;99.90;;;-141.84;78.72;19263.09;5050335;28;20220;-60
2022/12/31 03:28:25;;;;;;;0.57;0.57;;;11.30;99.90;;;-141.84;78.92;19198.09;5049986;28;20575;-60
2022/12/31 03:30:57;;;;;;;0.53;0.53;;;11.30;99.90;;;-141.84;79.61;19222.47;5050373;28;20197;-59
2022/12/31 03:33:32;;;;;;;0.60;0.60;;;11.30;99.90;;;-141.84;79.56;19204.19;5051019;28;20544;-59
2022/12/31 03:36:04;;;;;;;0.50;0.50;;;11.30;99.90;;;-141.84;79.64;19216.38;5061505;28;20217;-60
2022/12/31 03:38:32;;;;;;;0.50;0.50;;;11.30;99.90;;;-141.84;79.32;19204.19;5038863;28;20230;-59
2022/12/31 03:41:01;;;;;;;0.77;0.50;;;11.30;99.90;;;-141.84;79.26;19232.63;5030181;28;20230;-60
2022/12/31 03:43:29;;;;;;;0.40;0.40;;;11.40;99.90;;;-141.84;78.01;19285.47;5030091;28;20705;-60
2022/12/31 03:45:58;;;;;;;0.50;0.50;;;11.60;99.90;;;-141.84;78.57;19248.88;5030456;28;20202;-59
2022/12/31 03:48:28;;;;;;;0.50;0.50;;;11.50;99.90;;;-141.84;79.37;19204.19;5030845;28;20570;-59
2022/12/31 03:50:56;;;;;;;0.50;0.47;;;11.50;99.90;;;-141.84;79.79;19216.38;5037977;28;20220;-59
2022/12/31 03:53:26;;;;;;;0.60;0.60;;;11.50;99.90;;;-141.84;79.73;19220.44;5070003;28;20239;-59
2022/12/31 03:55:55;;;;;;;0.50;0.50;;;11.60;99.90;;;-141.84;80.14;19218.41;5070418;28;20226;-59
2022/12/31 03:58:23;;;;;;;0.50;0.50;;;11.50;99.90;;;-141.84;79.61;19210.28;5069987;28;20715;-60
2022/12/31 04:00:51;;;;;;;0.50;0.50;;;11.50;99.90;;;-141.84;79.63;19242.78;5073858;28;20201;-60
2022/12/31 04:03:19;;;;;;;0.60;0.60;;;11.60;99.90;;;-141.84;79.81;19226.53;5074874;28;20204;-60
2022/12/31 04:05:54;;;;;;;0.40;0.40;;;11.50;99.90;;;-141.84;78.99;19250.91;5072269;28;20221;-59
2022/12/31 04:08:23;;;;;;;0.50;0.50;;;11.60;99.90;;;-141.84;79.40;19248.88;5054323;28;20233;-59
2022/12/31 04:10:51;;;;;;;0.52;0.52;;;11.60;99.90;;;-141.84;79.08;19240.75;5054340;28;20236;-59
2022/12/31 04:13:19;;;;;;;0.40;0.40;;;11.60;99.90;;;-141.84;79.58;19236.69;5054003;28;20233;-59
2022/12/31 04:15:50;;;;;;;0.77;0.50;;;11.70;99.90;;;-141.84;78.66;19271.25;5054004;28;21040;-60
2022/12/31 04:18:19;;;;;;;0.50;0.50;;;11.80;99.90;;;-141.84;78.97;19261.06;5054394;28;20205;-59
2022/12/31 04:20:47;;;;;;;0.40;0.40;;;11.80;99.90;;;-141.84;78.15;19271.25;5053800;28;20240;-59
2022/12/31 04:23:16;;;;;;;0.45;0.45;;;11.90;99.90;;;-141.84;78.61;19250.91;5053736;28;20225;-59
2022/12/31 04:25:44;;;;;;;0.50;0.50;;;11.90;99.90;;;-141.84;79.43;19283.44;5054199;28;20221;-60
2022/12/31 04:28:12;;;;;;;0.60;0.60;;;11.90;99.90;;;-141.84;79.97;19240.75;5053762;28;20224;-60
2022/12/31 04:30:41;;;;;;;0.57;0.57;;;11.80;99.90;;;-141.84;79.96;19218.41;5054465;28;20202;-59
2022/12/31 04:33:09;;;;;;;0.40;0.40;;;11.80;99.90;;;-141.84;79.98;19236.69;5053247;28;20236;-60
2022/12/31 04:35:37;;;;;;;0.50;0.50;;;11.80;99.90;;;-141.84;80.25;19220.44;5053745;28;20232;-60
2022/12/31 04:38:05;;;;;;;0.70;0.50;;;11.90;99.90;;;-141.84;79.90;19228.56;5053591;28;20221;-60
2022/12/31 04:41:15;;;;;;;0.50;0.50;;;12.00;99.90;;;-141.84;78.71;19281.41;5053783;28;20225;-59
2022/12/31 04:43:23;;;;;;;1.83;0.77;;;12.10;99.90;;;-141.84;78.41;19301.72;5045631;28;20226;-60
2022/12/31 04:45:51;;;;;;;1.00;0.60;;;12.20;99.90;;;-141.84;78.36;19334.22;5033732;28;20206;-60
2022/12/31 04:48:19;;;;;;;1.03;0.50;;;12.30;99.90;;;-141.84;78.42;19297.66;5034246;28;20237;-60
2022/12/31 04:50:47;;;;;;;1.00;0.50;;;12.30;99.90;;;-141.84;78.27;19317.97;5041256;28;20282;-59
2022/12/31 04:53:15;;;;;;;0.60;0.60;;;12.30;99.90;;;-141.84;78.33;19313.91;5072054;28;20240;-60
2022/12/31 04:55:45;;;;;;;0.85;0.50;;;12.40;99.90;;;-141.84;77.92;19309.84;5072332;28;20246;-60
2022/12/31 04:58:14;;;;;;;1.23;0.40;;;12.50;99.90;;;-141.84;77.82;19311.88;5071865;28;20231;-60
2022/12/31 05:00:43;;;;;;;0.57;0.50;;;12.50;99.90;;;-141.84;77.99;19317.97;5072707;28;20197;-59
2022/12/31 05:03:11;;;;;;;0.50;0.50;;;12.50;99.90;;;-141.84;78.01;19334.22;5071893;28;20277;-59
2022/12/31 05:05:41;;;;;;;0.60;0.60;;;12.50;99.90;;;-141.84;78.09;19279.38;5071143;28;20298;-60
2022/12/31 05:08:09;;;;;;;0.60;0.60;;;12.50;99.90;;;-141.84;78.18;19289.53;5051635;28;20252;-60
2022/12/31 05:10:46;;;;;;;0.68;0.60;;;12.50;99.90;;;-141.84;77.72;19342.34;5051682;28;20217;-59
2022/12/31 05:13:14;;;;;;;0.63;0.63;;;12.50;99.90;;;-141.84;77.50;19346.44;5052068;28;20244;-58
2022/12/31 05:15:43;;;;;;;0.47;0.47;;;12.60;99.90;;;-141.84;77.44;19326.09;5052454;28;20567;-59
2022/12/31 05:18:11;;;;;;;0.47;0.47;;;12.70;99.90;;;-141.84;77.33;19336.25;5051570;28;20217;-59
2022/12/31 05:20:39;;;;;;;0.60;0.60;;;12.70;99.90;;;-141.84;78.26;19273.28;5051760;28;20785;-59
2022/12/31 05:23:08;;;;;;;0.60;0.60;;;12.60;99.90;;;-141.84;77.84;19307.81;5051644;28;20229;-60
2022/12/31 05:25:36;;;;;;;0.50;0.50;;;12.60;99.90;;;-141.84;78.41;19336.25;5052019;28;20222;-59
2022/12/31 05:28:06;;;;;;;0.55;0.55;;;12.60;99.90;;;-141.84;78.25;19297.66;5051716;28;20221;-58
2022/12/31 05:30:34;;;;;;;0.57;0.57;;;12.60;99.90;;;-141.84;77.99;19315.94;5052220;28;20202;-59
2022/12/31 05:33:03;;;;;;;0.57;0.57;;;12.60;99.90;;;-141.84;77.90;19336.25;5051617;28;20228;-59
2022/12/31 05:35:31;;;;;;;0.40;0.40;;;12.70;99.90;;;-141.84;78.23;19303.75;5065623;28;20221;-59
2022/12/31 05:38:00;;;;;;;0.40;0.40;;;12.70;99.90;;;-141.84;77.83;19311.88;5031775;28;20232;-59
2022/12/31 05:40:29;;;;;;;0.30;0.30;;;12.70;99.90;;;-141.84;77.72;19342.34;5031564;28;20748;-59
2022/12/31 05:42:57;;;;;;;0.40;0.40;;;12.70;99.90;;;-141.84;77.90;19277.34;5031777;28;20204;-59
2022/12/31 05:45:26;;;;;;;1.02;0.50;;;12.70;99.90;;;-141.84;78.83;19328.13;5031918;28;20568;-60
2022/12/31 05:47:58;;;;;;;0.50;0.50;;;12.60;99.90;;;-141.84;78.73;19279.38;5031480;28;20284;-59
2022/12/31 05:50:26;;;;;;;1.83;0.60;;;12.60;99.90;;;-141.84;78.10;19309.84;5031477;28;20230;-60
2022/12/31 05:52:54;;;;;;;0.35;0.35;;;12.70;99.90;;;-141.84;77.25;19311.88;4992221;28;1137626;-60
2022/12/31 05:55:23;;;;;;;0.50;0.50;;;12.80;99.90;;;-141.84;77.02;19362.69;5032475;28;20820;-60
2022/12/31 05:57:51;;;;;;;3.10;0.50;;;12.90;99.90;;;-141.84;77.37;19320.00;5032717;28;20206;-59
2022/12/31 06:00:19;;;;;;;0.40;0.40;;;12.90;99.90;;;-141.84;77.30;19313.91;5032744;28;20588;-60
2022/12/31 06:02:49;;;;;;;2.38;0.40;;;12.90;99.90;;;-141.84;76.86;19380.97;5032372;28;20234;-60
2022/12/31 06:05:17;;;;;;;0.40;0.40;;;12.90;99.90;;;-141.84;76.95;19344.41;5032426;28;20236;-60
2022/12/31 06:07:53;;;;;;;0.50;0.40;;;12.90;99.90;;;-141.84;76.63;19352.53;5051454;28;20730;-60
2022/12/31 06:10:21;;;;;;;0.53;0.40;;;13.00;99.90;;;-141.84;76.59;19362.69;5052095;28;20225;-60
2022/12/31 06:12:49;;;;;;;0.98;0.60;;;13.00;99.90;;;-141.84;76.49;19376.91;5052079;28;20208;-59
2022/12/31 06:15:17;;;;;;;0.50;0.50;;;13.00;99.90;;;-141.84;76.73;19354.56;5052687;28;20201;-59
2022/12/31 06:17:46;;;;;;;0.95;0.50;;;13.00;99.90;;;-141.84;76.17;19376.91;5052302;28;20233;-58
2022/12/31 06:20:15;;;;;;;0.50;0.50;;;13.00;99.90;;;-141.84;75.54;19383.00;5052083;28;20248;-59
2022/12/31 06:22:43;;;;;;;0.40;0.40;;;13.10;99.90;;;-141.84;76.09;19356.59;5051175;28;20224;-59
2022/12/31 06:25:11;;;;;;;0.40;0.40;;;13.10;99.90;;;-141.84;76.33;19383.00;5051895;28;20224;-60
2022/12/31 06:27:39;;;;;;;0.65;0.55;;;13.10;99.90;;;-141.84;76.04;19413.47;5052510;28;20209;-59
2022/12/31 06:30:10;;;;;;;0.55;0.55;;;13.10;99.90;;;-141.84;76.40;19358.63;5051420;28;20232;-60
2022/12/31 06:32:39;;;;;;;0.60;0.60;;;13.10;99.90;;;-141.84;75.72;19403.31;5051935;28;20229;-59
2022/12/31 06:35:08;;;;;;;0.65;0.50;;;13.10;99.90;;;-141.84;74.87;19427.72;5063445;28;20244;-59
2022/12/31 06:37:38;;;;;;;1.05;0.50;;;13.30;99.90;;;-141.84;75.63;19376.91;5053492;28;20304;-59
2022/12/31 06:40:08;;;;;;;0.45;0.45;;;13.30;99.90;;;-141.84;75.28;19433.81;5051783;28;20193;-59
2022/12/31 06:42:36;;;;;;;0.77;0.40;;;13.30;99.90;;;-141.84;75.26;19387.06;5052251;28;20206;-58
2022/12/31 06:45:05;;;;;;;0.60;0.50;;;13.30;99.90;;;-141.84;74.77;19403.31;5050780;28;20229;-60
2022/12/31 06:47:34;;;;;;;0.50;0.50;;;13.40;99.90;;;-141.84;74.77;19425.69;5051315;28;20712;-61
2022/12/31 06:50:02;;;;;;;0.65;0.60;;;13.40;99.90;;;-141.84;74.62;19433.81;5051616;28;20240;-60
2022/12/31 06:52:30;;;;;;;0.50;0.50;;;13.40;99.90;;;-141.84;74.75;19407.38;5067895;28;20220;-59
2022/12/31 06:55:00;;;;;;;1.45;0.80;;;13.40;99.90;;;-141.84;74.80;19409.41;5071393;28;20275;-59
2022/12/31 06:57:30;;;;;;;0.65;0.65;;;13.40;99.90;;;-141.84;74.22;19456.16;5072190;28;20189;-61
2022/12/31 06:59:59;;;;;;;0.80;0.50;;;13.50;99.90;;;-141.84;73.92;19419.59;5071346;28;20598;-60
2022/12/31 07:03:07;;;;;;;1.27;0.60;;;13.60;99.90;;;-141.84;73.90;19454.13;5071070;28;20224;-59
2022/12/31 07:05:46;;;;;;;0.50;0.50;;;13.60;99.90;;;-141.84;73.50;19456.16;5070707;28;20761;-59
2022/12/31 07:08:34;;;;;;;0.68;0.68;;;13.70;99.90;;;-141.84;73.15;19466.31;5051234;28;20236;-59
2022/12/31 07:11:12;;;;;;;1.42;0.57;;;13.80;99.90;;;-141.84;73.11;19480.53;5051245;28;20224;-61
2022/12/31 07:14:11;;;;;;;0.52;0.52;;;13.80;99.90;;;-141.84;72.64;19509.00;5051298;28;20240;-60
2022/12/31 07:17:00;;;;;;;0.55;0.55;;;13.90;99.90;;;-141.84;72.60;19496.81;5045537;28;20228;-60
2022/12/31 07:19:44;;;;;;;0.95;0.65;;;13.90;99.90;;;-141.84;72.85;19480.53;5051476;28;20231;-60
2022/12/31 07:22:16;;;;;;;1.83;0.77;;;13.90;99.90;;;-141.84;72.65;19480.53;5051052;28;20233;-59
2022/12/31 07:24:45;;;;;;;1.85;0.65;;;14.00;99.90;;;-141.84;72.96;19529.31;5051803;28;20182;-61
2022/12/31 07:27:42;;;;;;;0.77;0.60;;;13.90;99.90;;;-141.84;72.36;19490.72;5051030;28;20561;-59
2022/12/31 07:30:15;;;;;;;1.48;0.55;;;14.10;99.90;;;-141.84;72.59;19506.97;5050879;28;20237;-61
2022/12/31 07:33:21;;;;;;;0.52;0.52;;;14.10;99.90;;;-141.84;72.34;19496.81;5050870;28;20228;-60
2022/12/31 07:36:03;;;;;;;0.93;0.60;;;14.10;99.90;;;-141.84;71.98;19565.91;5064823;28;20221;-60
2022/12/31 07:38:45;;;;;;;0.80;0.80;;;14.10;99.90;;;-141.84;72.20;19519.16;5050477;28;20229;-59
2022/12/31 07:41:31;;;;;;;0.80;0.70;;;14.10;99.90;;;-141.84;72.48;19576.06;5030774;28;20230;-61
2022/12/31 07:44:10;;;;;;;0.60;0.60;;;14.10;99.90;;;-141.84;72.25;19545.56;5030785;28;20226;-61
2022/12/31 07:46:52;;;;;;;0.82;0.70;;;14.10;99.90;;;-141.84;72.50;19504.94;5034376;28;20237;-60
2022/12/31 07:49:21;;;;;;;0.60;0.60;;;14.10;99.90;;;-141.84;72.10;19541.50;5050549;28;20225;-63
2022/12/31 07:51:50;;;;;;;0.65;0.60;;;14.10;99.90;;;-141.84;71.88;19543.53;5053098;28;20232;-60
2022/12/31 07:54:19;;;;;;;0.70;0.70;;;14.20;99.90;;;-141.84;72.41;19529.31;5071369;28;20196;-62
2022/12/31 07:56:47;;;;;;;0.63;0.63;;;14.10;99.90;;;-141.84;72.01;19547.59;5071027;28;20323;-61
2022/12/31 07:59:41;;;;;;;0.85;0.60;;;14.20;99.90;;;-141.84;71.98;19557.78;5070595;28;20233;-64
2022/12/31 08:02:36;;;;;;;0.70;0.50;;;14.20;99.90;;;-141.84;72.20;19557.78;5069980;28;20727;-61
2022/12/31 08:05:20;;;;;;;0.93;0.70;;;14.20;99.90;;;-141.84;72.39;19529.31;5069455;28;20282;-61
2022/12/31 08:07:58;;;;;;;0.63;0.52;;;14.20;99.90;;;-141.84;72.74;19525.25;5068344;28;20224;-61
2022/12/31 08:10:39;;;;;;;0.77;0.60;;;14.20;99.90;;;-141.84;72.49;19533.38;5070266;28;20231;-61
2022/12/31 08:13:11;;;;;;;0.52;0.50;;;14.20;99.90;;;-141.84;72.41;19539.47;5069912;28;20236;-61
2022/12/31 08:15:42;;;;;;;0.52;0.52;;;14.20;99.90;;;-141.84;72.25;19533.38;5069155;28;20197;-62
2022/12/31 08:18:11;;;;;;;0.60;0.60;;;14.20;99.90;;;-141.84;71.88;19574.03;5070314;28;20239;-61
2022/12/31 08:20:47;;;;;;;0.80;0.50;;;14.20;99.90;;;-141.84;71.89;19523.22;5070512;28;20227;-63
2022/12/31 08:23:25;;;;;;;1.17;0.60;;;14.30;99.90;;;-141.84;71.88;19567.94;5070044;28;20228;-64
2022/12/31 08:26:16;;;;;;;1.25;0.70;;;14.20;99.90;;;-141.84;72.13;19541.50;5070681;28;20220;-62
2022/12/31 08:29:02;;;;;;;1.05;0.80;;;14.30;99.90;;;-141.84;72.67;19529.31;5070380;28;20256;-62
2022/12/31 08:31:43;;;;;;;1.17;0.50;;;14.20;99.90;;;-141.84;71.78;19574.03;5070201;28;20609;-62
2022/12/31 08:34:25;;;;;;;1.05;0.80;;;14.30;99.90;;;-141.84;71.37;19614.66;5074273;28;20224;-64
2022/12/31 08:37:01;;;;;;;1.63;1.00;;;14.40;99.90;;;-141.84;71.38;19567.94;5078156;28;20193;-63
2022/12/31 08:39:51;;;;;;;0.80;0.80;;;14.40;99.90;;;-141.84;70.96;19618.75;5070754;28;20197;-61
2022/12/31 08:42:32;;;;;;;1.55;0.85;;;14.50;99.90;;;-141.84;71.52;19590.28;5070541;28;20306;-63
2022/12/31 08:45:13;;;;;;;0.93;0.75;;;14.50;99.90;;;-141.84;71.07;19582.16;5071006;28;20228;-63
2022/12/31 08:47:57;;;;;;;1.38;0.70;;;14.50;99.90;;;-141.84;71.53;19600.44;5073767;28;20224;-62
2022/12/31 08:50:29;;;;;;;1.00;0.80;;;14.50;99.90;;;-141.84;71.92;19602.47;5072022;28;20278;-61
2022/12/31 08:52:58;;;;;;;1.73;1.25;;;14.50;99.90;;;-141.84;70.92;19639.06;5053278;28;20229;-63
2022/12/31 08:55:28;;;;;;;1.02;0.93;;;14.50;99.90;;;-141.84;70.53;19639.06;5053882;28;20263;-62
2022/12/31 08:58:13;;;;;;;1.05;0.93;;;14.60;99.90;;;-141.84;71.13;19569.97;5053326;28;20209;-61
2022/12/31 09:00:42;;;;;;;1.10;1.00;;;14.60;99.90;;;-141.84;71.30;19635.00;5073130;28;20211;-62
2022/12/31 09:03:59;;;;;;;1.02;0.80;;;14.50;99.90;;;-141.84;70.75;19639.06;5070482;28;20221;-61
2022/12/31 09:06:33;;;;;;;1.38;0.80;;;14.60;99.90;;;-141.84;70.71;19622.81;5057155;28;20836;-62
2022/12/31 09:09:14;;;;;;;1.27;0.85;;;14.60;99.90;;;-141.84;70.56;19632.97;5068097;28;20224;-61
2022/12/31 09:11:54;;;;;;;1.83;0.90;;;14.70;99.90;;;-141.84;70.36;19663.44;5068892;28;20224;-62
2022/12/31 09:14:42;;;;;;;1.50;0.93;;;14.70;99.90;;;-141.84;70.21;19606.53;5061914;28;20220;-64
2022/12/31 09:17:43;;;;;;;1.20;1.10;;;14.80;99.90;;;-141.84;69.41;19669.53;5069087;28;20224;-63
2022/12/31 09:20:23;;;;;;;1.35;1.00;;;14.80;99.90;;;-141.84;69.55;19657.34;5068710;28;20685;-63
2022/12/31 09:22:53;;;;;;;2.05;1.02;;;14.90;99.90;;;-141.84;69.08;19689.88;5071803;28;20216;-62
2022/12/31 09:25:24;;;;;;;1.27;0.80;;;15.00;99.90;;;-141.84;69.04;19687.84;5072689;28;20224;-62
2022/12/31 09:28:07;;;;;;;1.10;0.82;;;15.10;99.90;;;-141.84;68.29;19712.22;5072609;28;20753;-62
2022/12/31 09:30:46;;;;;;;1.85;1.00;;;15.00;99.90;;;-141.84;68.64;19708.16;5073363;28;20224;-63
2022/12/31 09:33:31;;;;;;;1.60;1.10;;;15.20;99.90;;;-141.84;68.35;19698.00;5072304;28;20217;-62
2022/12/31 09:36:06;;;;;;;2.83;0.70;;;15.30;99.90;;;-141.84;68.09;19740.69;5073118;28;20224;-63
2022/12/31 09:38:43;;;;;;;0.95;0.88;;;15.40;99.90;;;-141.84;67.87;19744.75;5072326;28;20223;-62
2022/12/31 09:41:30;;;;;;;1.15;0.85;;;15.40;99.90;;;-141.84;67.59;19756.94;5072739;28;20892;-63
2022/12/31 09:45:22;;;;;;;0.95;0.80;;;15.50;99.90;;;-141.84;67.40;19783.34;5072396;28;20228;-64
2022/12/31 09:48:40;;;;;;;0.90;0.80;;;15.60;99.90;;;-141.84;66.97;19791.47;5072034;28;20220;-63
2022/12/31 09:51:38;;;;;;;0.95;0.80;;;15.70;99.90;;;-141.84;66.93;19771.16;5062908;28;20590;-63
2022/12/31 09:54:34;;;;;;;0.85;0.80;;;15.70;99.90;;;-141.84;66.48;19809.78;5072058;28;20700;-62
2022/12/31 09:57:28;;;;;;;1.23;1.02;;;15.80;99.90;;;-141.84;66.58;19797.59;5064244;28;20224;-66
2022/12/31 10:00:05;;;;;;;3.05;1.20;;;15.80;99.90;;;-141.84;67.02;19824.00;5068718;28;20220;-63
2022/12/31 10:03:02;;;;;;;2.05;0.93;;;15.80;99.90;;;-141.84;66.56;19815.88;5062116;28;20222;-64
2022/12/31 10:06:03;;;;;;;1.55;1.17;;;15.90;99.90;;;-141.84;66.21;19846.34;5067392;28;20312;-63
2022/12/31 10:09:01;;;;;;;0.85;0.70;;;16.00;99.90;;;-141.84;66.07;19862.63;5065392;28;20238;-59
2022/12/31 10:11:52;;;;;;;0.90;0.75;;;16.10;99.90;;;-141.84;66.21;19826.03;5067865;28;20244;-59
2022/12/31 10:14:42;;;;;;;2.20;1.00;;;16.10;99.90;;;-141.84;65.49;19854.50;5070107;28;20583;-60
2022/12/31 10:17:47;;;;;;;1.55;0.80;;;16.10;99.90;;;-141.84;65.58;19862.63;5071611;28;20248;-61
2022/12/31 10:20:40;;;;;;;1.20;0.90;;;16.20;99.90;;;-141.84;65.31;19911.41;5055550;28;20232;-60
2022/12/31 10:23:32;;;;;;;2.17;1.00;;;16.20;99.90;;;-141.84;65.24;19852.44;5071168;28;20231;-60
2022/12/31 10:26:27;;;;;;;1.10;1.00;;;16.30;99.90;;;-141.84;65.41;19891.06;5062928;28;20229;-62
2022/12/31 10:29:11;;;;;;;1.00;0.80;;;16.30;99.90;;;-141.84;65.21;19874.81;5064515;28;20303;-62
2022/12/31 10:31:50;;;;;;;1.60;1.27;;;16.30;99.90;;;-141.84;65.16;19915.47;5065919;28;20239;-64
2022/12/31 10:34:34;;;;;;;1.50;1.17;;;16.40;99.90;;;-141.84;64.88;19911.41;5062903;28;20232;-61
2022/12/31 10:37:10;;;;;;;2.25;1.30;;;16.40;99.90;;;-141.84;64.74;19935.78;5064677;28;20208;-62
2022/12/31 10:40:00;;;;;;;1.88;1.48;;;16.50;99.90;;;-141.84;64.38;19968.31;5072306;28;20184;-62
2022/12/31 10:43:22;;;;;;;2.55;1.35;;;16.60;99.90;;;-141.84;63.63;19996.75;5057478;28;20213;-60
2022/12/31 10:46:34;;;;;;;1.45;1.27;;;16.80;99.90;;;-141.84;63.07;19974.41;4993310;28;20227;-61
2022/12/31 10:49:45;;;;;;;1.25;0.98;;;16.80;99.90;;;-141.84;62.36;20043.50;4989519;28;20211;-61